Terminal Aerodrome Forecast
Issued by NWS Mt. Holly, NJ

Home | Current Version | Previous Version | Text Only | Print | Product List | Glossary On
Versions: 1 2 3 4 5 6 7 8 9 10 11 12 13 14 15 16 17 18 19 20 21 22 23 24 25 26 27 28 29 30 31 32 33 34 35 36 37 38 39 40
000
FTUS41 KPHI 052104 AAA
TAFABE
TAF AMD
KABE 052104Z 0521/0618 28006KT P6SM SCT045 BKN100
     FM052300 VRB03KT P6SM SCT035 BKN070
      TEMPO 0523/0603 -SHRA OVC035
     FM060600 VRB03KT P6SM SCT025 OVC050
     FM061000 06006KT 6SM -SHRA BR SCT020 OVC050=

USA.gov is the U.S. government's official web portal to all federal, state and local government web resources and services.